sensor_id;sensor_type;location;lat;lon;timestamp;temperature;humidity
20337;DHT22;10326;53.660;10.200;2024-03-06T00:00:12;8.80;89.00
20337;DHT22;10326;53.660;10.200;2024-03-06T00:02:39;8.80;89.10
20337;DHT22;10326;53.660;10.200;2024-03-06T00:05:07;8.80;89.10
20337;DHT22;10326;53.660;10.200;2024-03-06T00:07:34;8.80;89.20
20337;DHT22;10326;53.660;10.200;2024-03-06T00:10:02;8.80;89.20
20337;DHT22;10326;53.660;10.200;2024-03-06T00:12:31;8.80;89.20
20337;DHT22;10326;53.660;10.200;2024-03-06T00:14:58;8.80;89.30
20337;DHT22;10326;53.660;10.200;2024-03-06T00:17:25;8.80;89.30
20337;DHT22;10326;53.660;10.200;2024-03-06T00:19:52;8.80;89.30
20337;DHT22;10326;53.660;10.200;2024-03-06T00:22:19;8.80;89.30
20337;DHT22;10326;53.660;10.200;2024-03-06T00:24:47;8.80;89.20
20337;DHT22;10326;53.660;10.200;2024-03-06T00:27:14;8.80;89.10
20337;DHT22;10326;53.660;10.200;2024-03-06T00:29:42;8.80;89.20
20337;DHT22;10326;53.660;10.200;2024-03-06T00:32:09;8.80;89.30
20337;DHT22;10326;53.660;10.200;2024-03-06T00:34:36;8.80;89.30
20337;DHT22;10326;53.660;10.200;2024-03-06T00:37:03;8.80;89.30
20337;DHT22;10326;53.660;10.200;2024-03-06T00:39:30;8.80;89.40
20337;DHT22;10326;53.660;10.200;2024-03-06T00:41:57;8.80;89.40
20337;DHT22;10326;53.660;10.200;2024-03-06T00:44:24;8.80;89.40
20337;DHT22;10326;53.660;10.200;2024-03-06T00:46:53;8.80;89.40
20337;DHT22;10326;53.660;10.200;2024-03-06T00:49:20;8.80;89.50
20337;DHT22;10326;53.660;10.200;2024-03-06T00:51:47;8.80;89.50
20337;DHT22;10326;53.660;10.200;2024-03-06T00:54:14;8.80;89.40
20337;DHT22;10326;53.660;10.200;2024-03-06T00:56:41;8.80;89.40
20337;DHT22;10326;53.660;10.200;2024-03-06T00:59:08;8.80;89.40
20337;DHT22;10326;53.660;10.200;2024-03-06T01:01:36;8.80;89.40
20337;DHT22;10326;53.660;10.200;2024-03-06T01:04:04;8.80;89.30
20337;DHT22;10326;53.660;10.200;2024-03-06T01:06:31;8.70;89.40
20337;DHT22;10326;53.660;10.200;2024-03-06T01:08:58;8.70;89.40
20337;DHT22;10326;53.660;10.200;2024-03-06T01:11:26;8.70;89.40
20337;DHT22;10326;53.660;10.200;2024-03-06T01:13:53;8.70;89.40
20337;DHT22;10326;53.660;10.200;2024-03-06T01:16:20;8.70;89.40
20337;DHT22;10326;53.660;10.200;2024-03-06T01:18:47;8.70;89.50
20337;DHT22;10326;53.660;10.200;2024-03-06T01:21:16;8.70;89.40
20337;DHT22;10326;53.660;10.200;2024-03-06T01:23:43;8.70;89.50
20337;DHT22;10326;53.660;10.200;2024-03-06T01:26:10;8.70;89.50
20337;DHT22;10326;53.660;10.200;2024-03-06T01:28:37;8.70;89.90
20337;DHT22;10326;53.660;10.200;2024-03-06T01:31:04;8.70;89.40
20337;DHT22;10326;53.660;10.200;2024-03-06T01:33:32;8.70;89.40
20337;DHT22;10326;53.660;10.200;2024-03-06T01:35:59;8.70;89.40
20337;DHT22;10326;53.660;10.200;2024-03-06T01:38:27;8.70;89.40
20337;DHT22;10326;53.660;10.200;2024-03-06T01:40:54;8.70;89.40
20337;DHT22;10326;53.660;10.200;2024-03-06T01:43:22;8.60;89.30
20337;DHT22;10326;53.660;10.200;2024-03-06T01:45:51;8.60;89.50
20337;DHT22;10326;53.660;10.200;2024-03-06T01:48:21;8.60;89.50
20337;DHT22;10326;53.660;10.200;2024-03-06T01:50:52;8.60;89.50
20337;DHT22;10326;53.660;10.200;2024-03-06T01:53:20;8.60;89.50
20337;DHT22;10326;53.660;10.200;2024-03-06T01:55:48;8.60;89.40
20337;DHT22;10326;53.660;10.200;2024-03-06T01:58:15;8.60;89.40
20337;DHT22;10326;53.660;10.200;2024-03-06T02:00:44;8.60;89.40
20337;DHT22;10326;53.660;10.200;2024-03-06T02:03:11;8.60;89.40
20337;DHT22;10326;53.660;10.200;2024-03-06T02:05:38;8.60;89.50
20337;DHT22;10326;53.660;10.200;2024-03-06T02:08:07;8.60;89.50
20337;DHT22;10326;53.660;10.200;2024-03-06T02:10:34;8.60;89.60
20337;DHT22;10326;53.660;10.200;2024-03-06T02:13:03;8.60;89.50
20337;DHT22;10326;53.660;10.200;2024-03-06T02:15:30;8.60;89.60
20337;DHT22;10326;53.660;10.200;2024-03-06T02:17:58;8.60;89.50
20337;DHT22;10326;53.660;10.200;2024-03-06T02:20:26;8.60;89.50
20337;DHT22;10326;53.660;10.200;2024-03-06T02:22:53;8.60;89.50
20337;DHT22;10326;53.660;10.200;2024-03-06T02:25:21;8.60;89.40
20337;DHT22;10326;53.660;10.200;2024-03-06T02:27:48;8.60;89.40
20337;DHT22;10326;53.660;10.200;2024-03-06T02:30:19;8.60;89.40
20337;DHT22;10326;53.660;10.200;2024-03-06T02:32:47;8.60;89.50
20337;DHT22;10326;53.660;10.200;2024-03-06T02:35:14;8.60;89.50
20337;DHT22;10326;53.660;10.200;2024-03-06T02:37:42;8.60;89.50
20337;DHT22;10326;53.660;10.200;2024-03-06T02:40:10;8.60;89.50
20337;DHT22;10326;53.660;10.200;2024-03-06T02:42:37;8.60;89.50
20337;DHT22;10326;53.660;10.200;2024-03-06T02:45:06;8.60;89.40
20337;DHT22;10326;53.660;10.200;2024-03-06T02:47:34;8.60;89.40
20337;DHT22;10326;53.660;10.200;2024-03-06T02:50:01;8.60;89.40
20337;DHT22;10326;53.660;10.200;2024-03-06T02:52:28;8.50;89.30
20337;DHT22;10326;53.660;10.200;2024-03-06T02:54:57;8.60;89.40
20337;DHT22;10326;53.660;10.200;2024-03-06T02:57:26;8.50;89.30
20337;DHT22;10326;53.660;10.200;2024-03-06T02:59:55;8.50;89.40
20337;DHT22;10326;53.660;10.200;2024-03-06T03:02:22;8.60;89.40
20337;DHT22;10326;53.660;10.200;2024-03-06T03:04:49;8.50;89.30
20337;DHT22;10326;53.660;10.200;2024-03-06T03:07:17;8.60;89.30
20337;DHT22;10326;53.660;10.200;2024-03-06T03:09:45;8.50;89.20
20337;DHT22;10326;53.660;10.200;2024-03-06T03:12:14;8.50;89.20
20337;DHT22;10326;53.660;10.200;2024-03-06T03:14:41;8.50;89.20
20337;DHT22;10326;53.660;10.200;2024-03-06T03:17:09;8.50;89.20
20337;DHT22;10326;53.660;10.200;2024-03-06T03:19:36;8.50;89.20
20337;DHT22;10326;53.660;10.200;2024-03-06T03:22:05;8.50;89.20
20337;DHT22;10326;53.660;10.200;2024-03-06T03:24:34;8.50;89.20
20337;DHT22;10326;53.660;10.200;2024-03-06T03:27:02;8.50;89.20
20337;DHT22;10326;53.660;10.200;2024-03-06T03:29:31;8.50;89.10
20337;DHT22;10326;53.660;10.200;2024-03-06T03:31:58;8.50;89.10
20337;DHT22;10326;53.660;10.200;2024-03-06T03:34:25;8.50;89.10
20337;DHT22;10326;53.660;10.200;2024-03-06T03:36:52;8.50;89.10
20337;DHT22;10326;53.660;10.200;2024-03-06T03:39:19;8.50;89.00
20337;DHT22;10326;53.660;10.200;2024-03-06T03:41:50;8.50;89.00
20337;DHT22;10326;53.660;10.200;2024-03-06T03:44:18;8.50;88.90
20337;DHT22;10326;53.660;10.200;2024-03-06T03:46:47;8.50;89.10
20337;DHT22;10326;53.660;10.200;2024-03-06T03:49:14;8.50;88.90
20337;DHT22;10326;53.660;10.200;2024-03-06T03:51:42;8.50;89.00
20337;DHT22;10326;53.660;10.200;2024-03-06T03:54:09;8.50;88.90
20337;DHT22;10326;53.660;10.200;2024-03-06T03:56:36;8.50;88.90
20337;DHT22;10326;53.660;10.200;2024-03-06T03:59:03;8.50;89.00
20337;DHT22;10326;53.660;10.200;2024-03-06T04:01:30;8.50;89.00
20337;DHT22;10326;53.660;10.200;2024-03-06T04:03:58;8.50;88.90
20337;DHT22;10326;53.660;10.200;2024-03-06T04:06:26;8.50;88.90
20337;DHT22;10326;53.660;10.200;2024-03-06T04:08:53;8.40;88.80
20337;DHT22;10326;53.660;10.200;2024-03-06T04:11:20;8.40;88.80
20337;DHT22;10326;53.660;10.200;2024-03-06T04:13:47;8.50;88.90
20337;DHT22;10326;53.660;10.200;2024-03-06T04:16:16;8.40;88.80
20337;DHT22;10326;53.660;10.200;2024-03-06T04:18:44;8.40;88.80
20337;DHT22;10326;53.660;10.200;2024-03-06T04:21:13;8.40;89.50
20337;DHT22;10326;53.660;10.200;2024-03-06T04:23:41;8.40;88.90
20337;DHT22;10326;53.660;10.200;2024-03-06T04:26:08;8.40;88.90
20337;DHT22;10326;53.660;10.200;2024-03-06T04:28:35;8.40;88.80
20337;DHT22;10326;53.660;10.200;2024-03-06T04:31:03;8.40;89.40
20337;DHT22;10326;53.660;10.200;2024-03-06T04:33:31;8.40;88.90
20337;DHT22;10326;53.660;10.200;2024-03-06T04:35:58;8.40;88.80
20337;DHT22;10326;53.660;10.200;2024-03-06T04:38:26;8.40;88.70
20337;DHT22;10326;53.660;10.200;2024-03-06T04:40:53;8.40;88.70
20337;DHT22;10326;53.660;10.200;2024-03-06T04:43:20;8.40;88.60
20337;DHT22;10326;53.660;10.200;2024-03-06T04:45:47;8.40;88.70
20337;DHT22;10326;53.660;10.200;2024-03-06T04:48:14;8.40;88.80
20337;DHT22;10326;53.660;10.200;2024-03-06T04:50:43;8.40;88.70
20337;DHT22;10326;53.660;10.200;2024-03-06T04:53:10;8.40;88.70
20337;DHT22;10326;53.660;10.200;2024-03-06T04:55:38;8.30;88.60
20337;DHT22;10326;53.660;10.200;2024-03-06T04:58:05;8.40;88.70
20337;DHT22;10326;53.660;10.200;2024-03-06T05:00:33;8.30;88.50
20337;DHT22;10326;53.660;10.200;2024-03-06T05:03:00;8.30;88.60
20337;DHT22;10326;53.660;10.200;2024-03-06T05:05:27;8.30;88.50
20337;DHT22;10326;53.660;10.200;2024-03-06T05:07:55;8.30;88.50
20337;DHT22;10326;53.660;10.200;2024-03-06T05:10:22;8.30;88.50
20337;DHT22;10326;53.660;10.200;2024-03-06T05:12:50;8.30;88.50
20337;DHT22;10326;53.660;10.200;2024-03-06T05:15:17;8.20;88.40
20337;DHT22;10326;53.660;10.200;2024-03-06T05:17:45;8.20;88.40
20337;DHT22;10326;53.660;10.200;2024-03-06T05:20:13;8.20;88.40
20337;DHT22;10326;53.660;10.200;2024-03-06T05:22:40;8.20;88.30
20337;DHT22;10326;53.660;10.200;2024-03-06T05:25:07;8.20;88.80
20337;DHT22;10326;53.660;10.200;2024-03-06T05:27:35;8.20;88.40
20337;DHT22;10326;53.660;10.200;2024-03-06T05:30:04;8.10;88.20
20337;DHT22;10326;53.660;10.200;2024-03-06T05:32:32;8.10;88.20
20337;DHT22;10326;53.660;10.200;2024-03-06T05:34:59;8.10;88.10
20337;DHT22;10326;53.660;10.200;2024-03-06T05:37:26;8.10;88.10
20337;DHT22;10326;53.660;10.200;2024-03-06T05:39:54;8.00;88.00
20337;DHT22;10326;53.660;10.200;2024-03-06T05:42:21;8.00;88.00
20337;DHT22;10326;53.660;10.200;2024-03-06T05:44:48;7.90;87.80
20337;DHT22;10326;53.660;10.200;2024-03-06T05:47:17;7.90;87.90
20337;DHT22;10326;53.660;10.200;2024-03-06T05:49:45;7.90;87.90
20337;DHT22;10326;53.660;10.200;2024-03-06T05:52:13;7.80;87.80
20337;DHT22;10326;53.660;10.200;2024-03-06T05:54:40;7.80;88.10
20337;DHT22;10326;53.660;10.200;2024-03-06T05:57:07;7.80;87.70
20337;DHT22;10326;53.660;10.200;2024-03-06T05:59:34;7.70;87.70
20337;DHT22;10326;53.660;10.200;2024-03-06T06:02:03;7.70;87.60
20337;DHT22;10326;53.660;10.200;2024-03-06T06:04:32;7.70;87.60
20337;DHT22;10326;53.660;10.200;2024-03-06T06:06:59;7.60;87.50
20337;DHT22;10326;53.660;10.200;2024-03-06T06:09:26;7.60;87.50
20337;DHT22;10326;53.660;10.200;2024-03-06T06:11:53;7.60;87.60
20337;DHT22;10326;53.660;10.200;2024-03-06T06:14:20;7.60;87.60
20337;DHT22;10326;53.660;10.200;2024-03-06T06:16:47;7.50;87.50
20337;DHT22;10326;53.660;10.200;2024-03-06T06:19:14;7.50;87.60
20337;DHT22;10326;53.660;10.200;2024-03-06T06:21:43;7.50;87.50
20337;DHT22;10326;53.660;10.200;2024-03-06T06:24:10;7.50;87.60
20337;DHT22;10326;53.660;10.200;2024-03-06T06:26:38;7.40;87.60
20337;DHT22;10326;53.660;10.200;2024-03-06T06:29:09;7.40;87.50
20337;DHT22;10326;53.660;10.200;2024-03-06T06:31:42;7.40;87.60
20337;DHT22;10326;53.660;10.200;2024-03-06T06:34:13;7.40;87.80
20337;DHT22;10326;53.660;10.200;2024-03-06T06:36:46;7.40;87.70
20337;DHT22;10326;53.660;10.200;2024-03-06T06:39:13;7.40;87.80
20337;DHT22;10326;53.660;10.200;2024-03-06T06:41:42;7.30;87.70
20337;DHT22;10326;53.660;10.200;2024-03-06T06:44:09;7.30;87.80
20337;DHT22;10326;53.660;10.200;2024-03-06T06:46:36;7.30;87.90
20337;DHT22;10326;53.660;10.200;2024-03-06T06:49:04;7.30;88.00
20337;DHT22;10326;53.660;10.200;2024-03-06T06:51:31;7.30;88.10
20337;DHT22;10326;53.660;10.200;2024-03-06T06:53:59;7.30;88.30
20337;DHT22;10326;53.660;10.200;2024-03-06T06:56:26;7.30;88.50
20337;DHT22;10326;53.660;10.200;2024-03-06T06:58:54;7.30;88.60
20337;DHT22;10326;53.660;10.200;2024-03-06T07:01:22;7.30;88.80
20337;DHT22;10326;53.660;10.200;2024-03-06T07:03:49;7.40;89.00
20337;DHT22;10326;53.660;10.200;2024-03-06T07:06:17;7.40;89.00
20337;DHT22;10326;53.660;10.200;2024-03-06T07:08:44;7.40;89.10
20337;DHT22;10326;53.660;10.200;2024-03-06T07:11:12;7.50;89.20
20337;DHT22;10326;53.660;10.200;2024-03-06T07:13:39;7.50;89.20
20337;DHT22;10326;53.660;10.200;2024-03-06T07:16:07;7.50;89.40
20337;DHT22;10326;53.660;10.200;2024-03-06T07:18:34;7.60;89.50
20337;DHT22;10326;53.660;10.200;2024-03-06T07:21:01;7.60;89.50
20337;DHT22;10326;53.660;10.200;2024-03-06T07:23:29;7.60;89.50
20337;DHT22;10326;53.660;10.200;2024-03-06T07:25:56;7.70;89.50
20337;DHT22;10326;53.660;10.200;2024-03-06T07:28:26;7.70;89.50
20337;DHT22;10326;53.660;10.200;2024-03-06T07:30:53;7.70;89.50
20337;DHT22;10326;53.660;10.200;2024-03-06T07:33:20;7.70;89.40
20337;DHT22;10326;53.660;10.200;2024-03-06T07:35:47;7.80;89.50
20337;DHT22;10326;53.660;10.200;2024-03-06T07:38:14;7.80;89.50
20337;DHT22;10326;53.660;10.200;2024-03-06T07:40:41;7.80;89.50
20337;DHT22;10326;53.660;10.200;2024-03-06T07:43:08;7.90;89.50
20337;DHT22;10326;53.660;10.200;2024-03-06T07:45:38;7.90;89.60
20337;DHT22;10326;53.660;10.200;2024-03-06T07:48:06;7.90;89.60
20337;DHT22;10326;53.660;10.200;2024-03-06T07:50:35;7.90;89.60
20337;DHT22;10326;53.660;10.200;2024-03-06T07:53:03;7.90;89.50
20337;DHT22;10326;53.660;10.200;2024-03-06T07:55:31;8.00;89.60
20337;DHT22;10326;53.660;10.200;2024-03-06T07:57:58;8.00;89.50
20337;DHT22;10326;53.660;10.200;2024-03-06T08:00:25;8.00;89.60
20337;DHT22;10326;53.660;10.200;2024-03-06T08:02:54;8.10;89.70
20337;DHT22;10326;53.660;10.200;2024-03-06T08:05:21;8.10;89.70
20337;DHT22;10326;53.660;10.200;2024-03-06T08:07:48;8.10;89.50
20337;DHT22;10326;53.660;10.200;2024-03-06T08:10:15;8.10;89.50
20337;DHT22;10326;53.660;10.200;2024-03-06T08:12:45;8.20;89.40
20337;DHT22;10326;53.660;10.200;2024-03-06T08:15:14;8.20;89.30
20337;DHT22;10326;53.660;10.200;2024-03-06T08:17:42;8.20;89.30
20337;DHT22;10326;53.660;10.200;2024-03-06T08:20:12;8.20;89.40
20337;DHT22;10326;53.660;10.200;2024-03-06T08:22:41;8.20;89.40
20337;DHT22;10326;53.660;10.200;2024-03-06T08:25:09;8.30;89.40
20337;DHT22;10326;53.660;10.200;2024-03-06T08:27:39;8.30;89.40
20337;DHT22;10326;53.660;10.200;2024-03-06T08:30:08;8.30;89.20
20337;DHT22;10326;53.660;10.200;2024-03-06T08:32:36;8.40;89.20
20337;DHT22;10326;53.660;10.200;2024-03-06T08:35:04;8.40;89.10
20337;DHT22;10326;53.660;10.200;2024-03-06T08:37:33;8.40;88.90
20337;DHT22;10326;53.660;10.200;2024-03-06T08:40:01;8.50;88.70
20337;DHT22;10326;53.660;10.200;2024-03-06T08:42:29;8.50;88.70
20337;DHT22;10326;53.660;10.200;2024-03-06T08:44:56;8.50;88.70
20337;DHT22;10326;53.660;10.200;2024-03-06T08:47:24;8.50;88.50
20337;DHT22;10326;53.660;10.200;2024-03-06T08:49:51;8.60;88.40
20337;DHT22;10326;53.660;10.200;2024-03-06T08:52:18;8.60;88.40
20337;DHT22;10326;53.660;10.200;2024-03-06T08:54:46;8.60;88.50
20337;DHT22;10326;53.660;10.200;2024-03-06T08:57:13;8.60;88.40
20337;DHT22;10326;53.660;10.200;2024-03-06T08:59:41;8.60;88.40
20337;DHT22;10326;53.660;10.200;2024-03-06T09:02:13;8.70;88.40
20337;DHT22;10326;53.660;10.200;2024-03-06T09:04:40;8.70;88.40
20337;DHT22;10326;53.660;10.200;2024-03-06T09:07:08;8.70;88.40
20337;DHT22;10326;53.660;10.200;2024-03-06T09:09:36;8.70;88.30
20337;DHT22;10326;53.660;10.200;2024-03-06T09:12:06;8.80;88.10
20337;DHT22;10326;53.660;10.200;2024-03-06T09:14:36;8.80;87.90
20337;DHT22;10326;53.660;10.200;2024-03-06T09:17:04;8.90;87.90
20337;DHT22;10326;53.660;10.200;2024-03-06T09:19:32;8.90;88.00
20337;DHT22;10326;53.660;10.200;2024-03-06T09:21:59;8.90;87.90
20337;DHT22;10326;53.660;10.200;2024-03-06T09:24:26;8.90;87.80
20337;DHT22;10326;53.660;10.200;2024-03-06T09:26:53;9.00;87.80
20337;DHT22;10326;53.660;10.200;2024-03-06T09:29:22;8.90;87.70
20337;DHT22;10326;53.660;10.200;2024-03-06T09:31:49;8.90;87.50
20337;DHT22;10326;53.660;10.200;2024-03-06T09:34:16;9.00;87.90
20337;DHT22;10326;53.660;10.200;2024-03-06T09:36:47;9.00;87.50
20337;DHT22;10326;53.660;10.200;2024-03-06T09:39:15;9.10;87.70
20337;DHT22;10326;53.660;10.200;2024-03-06T09:41:46;9.10;87.80
20337;DHT22;10326;53.660;10.200;2024-03-06T09:44:14;9.20;87.80
20337;DHT22;10326;53.660;10.200;2024-03-06T09:46:44;9.20;87.70
20337;DHT22;10326;53.660;10.200;2024-03-06T09:49:13;9.30;87.70
20337;DHT22;10326;53.660;10.200;2024-03-06T09:51:43;9.30;87.70
20337;DHT22;10326;53.660;10.200;2024-03-06T09:54:12;9.40;87.70
20337;DHT22;10326;53.660;10.200;2024-03-06T09:56:41;9.40;87.50
20337;DHT22;10326;53.660;10.200;2024-03-06T09:59:10;9.40;87.40
20337;DHT22;10326;53.660;10.200;2024-03-06T10:01:40;9.50;87.40
20337;DHT22;10326;53.660;10.200;2024-03-06T10:04:20;9.50;87.20
20337;DHT22;10326;53.660;10.200;2024-03-06T10:06:48;9.60;86.90
20337;DHT22;10326;53.660;10.200;2024-03-06T10:09:19;9.60;87.20
20337;DHT22;10326;53.660;10.200;2024-03-06T10:11:46;9.60;87.20
20337;DHT22;10326;53.660;10.200;2024-03-06T10:14:13;9.70;87.30
20337;DHT22;10326;53.660;10.200;2024-03-06T10:16:53;9.70;87.30
20337;DHT22;10326;53.660;10.200;2024-03-06T10:19:22;9.80;87.10
20337;DHT22;10326;53.660;10.200;2024-03-06T10:21:50;9.80;87.30
20337;DHT22;10326;53.660;10.200;2024-03-06T10:24:21;9.90;87.20
20337;DHT22;10326;53.660;10.200;2024-03-06T10:26:50;10.00;87.20
20337;DHT22;10326;53.660;10.200;2024-03-06T10:29:20;10.00;87.20
20337;DHT22;10326;53.660;10.200;2024-03-06T10:31:53;10.10;87.40
20337;DHT22;10326;53.660;10.200;2024-03-06T10:34:21;10.10;87.50
20337;DHT22;10326;53.660;10.200;2024-03-06T10:36:54;10.20;87.70
20337;DHT22;10326;53.660;10.200;2024-03-06T10:39:23;10.30;87.30
20337;DHT22;10326;53.660;10.200;2024-03-06T10:41:54;10.30;87.50
20337;DHT22;10326;53.660;10.200;2024-03-06T10:44:22;10.40;87.40
20337;DHT22;10326;53.660;10.200;2024-03-06T10:46:57;10.50;87.60
20337;DHT22;10326;53.660;10.200;2024-03-06T10:49:26;10.50;86.60
20337;DHT22;10326;53.660;10.200;2024-03-06T10:51:58;10.60;86.70
20337;DHT22;10326;53.660;10.200;2024-03-06T10:54:27;10.70;86.40
20337;DHT22;10326;53.660;10.200;2024-03-06T10:56:56;10.70;86.30
20337;DHT22;10326;53.660;10.200;2024-03-06T10:59:25;10.80;86.40
20337;DHT22;10326;53.660;10.200;2024-03-06T11:01:56;10.80;86.10
20337;DHT22;10326;53.660;10.200;2024-03-06T11:04:27;10.90;86.20
20337;DHT22;10326;53.660;10.200;2024-03-06T11:06:55;10.90;86.00
20337;DHT22;10326;53.660;10.200;2024-03-06T11:09:25;11.00;86.00
20337;DHT22;10326;53.660;10.200;2024-03-06T11:11:53;11.00;85.90
20337;DHT22;10326;53.660;10.200;2024-03-06T11:14:22;11.00;85.90
20337;DHT22;10326;53.660;10.200;2024-03-06T11:16:59;11.10;85.80
20337;DHT22;10326;53.660;10.200;2024-03-06T11:19:27;11.10;84.90
20337;DHT22;10326;53.660;10.200;2024-03-06T11:21:56;11.20;85.80
20337;DHT22;10326;53.660;10.200;2024-03-06T11:24:23;11.20;85.70
20337;DHT22;10326;53.660;10.200;2024-03-06T11:26:59;11.20;85.60
20337;DHT22;10326;53.660;10.200;2024-03-06T11:30:08;11.30;85.00
20337;DHT22;10326;53.660;10.200;2024-03-06T11:32:58;11.30;85.00
20337;DHT22;10326;53.660;10.200;2024-03-06T11:35:27;11.40;84.20
20337;DHT22;10326;53.660;10.200;2024-03-06T11:37:54;11.40;84.90
20337;DHT22;10326;53.660;10.200;2024-03-06T11:40:22;11.40;85.10
20337;DHT22;10326;53.660;10.200;2024-03-06T11:42:50;11.40;84.80
20337;DHT22;10326;53.660;10.200;2024-03-06T11:45:18;11.40;84.60
20337;DHT22;10326;53.660;10.200;2024-03-06T11:47:59;11.40;84.50
20337;DHT22;10326;53.660;10.200;2024-03-06T11:50:27;11.30;83.80
20337;DHT22;10326;53.660;10.200;2024-03-06T11:52:55;11.30;84.40
20337;DHT22;10326;53.660;10.200;2024-03-06T11:55:23;11.30;84.40
20337;DHT22;10326;53.660;10.200;2024-03-06T11:57:51;11.30;84.30
20337;DHT22;10326;53.660;10.200;2024-03-06T12:00:21;11.30;84.20
20337;DHT22;10326;53.660;10.200;2024-03-06T12:02:48;11.30;84.00
20337;DHT22;10326;53.660;10.200;2024-03-06T12:05:18;11.30;84.10
20337;DHT22;10326;53.660;10.200;2024-03-06T12:07:46;11.40;83.90
20337;DHT22;10326;53.660;10.200;2024-03-06T12:10:13;11.40;84.20
20337;DHT22;10326;53.660;10.200;2024-03-06T12:12:41;11.40;84.30
20337;DHT22;10326;53.660;10.200;2024-03-06T12:15:10;11.40;84.40
20337;DHT22;10326;53.660;10.200;2024-03-06T12:17:42;11.40;84.40
20337;DHT22;10326;53.660;10.200;2024-03-06T12:20:12;11.40;83.70
20337;DHT22;10326;53.660;10.200;2024-03-06T12:22:49;11.50;84.00
20337;DHT22;10326;53.660;10.200;2024-03-06T12:25:19;11.50;84.10
20337;DHT22;10326;53.660;10.200;2024-03-06T12:27:48;11.50;83.90
20337;DHT22;10326;53.660;10.200;2024-03-06T12:30:17;11.60;84.10
20337;DHT22;10326;53.660;10.200;2024-03-06T12:32:44;11.60;83.60
20337;DHT22;10326;53.660;10.200;2024-03-06T12:35:11;11.60;83.60
20337;DHT22;10326;53.660;10.200;2024-03-06T12:37:38;11.60;83.20
20337;DHT22;10326;53.660;10.200;2024-03-06T12:40:08;11.70;83.00
20337;DHT22;10326;53.660;10.200;2024-03-06T12:42:39;11.60;83.00
20337;DHT22;10326;53.660;10.200;2024-03-06T12:45:06;11.60;83.00
20337;DHT22;10326;53.660;10.200;2024-03-06T12:47:34;11.60;83.40
20337;DHT22;10326;53.660;10.200;2024-03-06T12:50:01;11.60;83.10
20337;DHT22;10326;53.660;10.200;2024-03-06T12:52:28;11.70;82.70
20337;DHT22;10326;53.660;10.200;2024-03-06T12:54:55;11.60;82.60
20337;DHT22;10326;53.660;10.200;2024-03-06T12:57:23;11.60;82.50
20337;DHT22;10326;53.660;10.200;2024-03-06T12:59:51;11.60;82.90
20337;DHT22;10326;53.660;10.200;2024-03-06T13:02:18;11.60;83.10
20337;DHT22;10326;53.660;10.200;2024-03-06T13:04:45;11.60;83.00
20337;DHT22;10326;53.660;10.200;2024-03-06T13:07:12;11.70;82.70
20337;DHT22;10326;53.660;10.200;2024-03-06T13:09:39;11.70;82.90
20337;DHT22;10326;53.660;10.200;2024-03-06T13:12:07;11.70;82.90
20337;DHT22;10326;53.660;10.200;2024-03-06T13:14:36;11.70;83.30
20337;DHT22;10326;53.660;10.200;2024-03-06T13:17:05;11.80;82.90
20337;DHT22;10326;53.660;10.200;2024-03-06T13:19:33;11.80;83.00
20337;DHT22;10326;53.660;10.200;2024-03-06T13:22:00;11.90;82.80
20337;DHT22;10326;53.660;10.200;2024-03-06T13:24:27;11.90;82.60
20337;DHT22;10326;53.660;10.200;2024-03-06T13:26:54;11.90;82.20
20337;DHT22;10326;53.660;10.200;2024-03-06T13:29:22;11.90;82.20
20337;DHT22;10326;53.660;10.200;2024-03-06T13:31:50;11.90;81.90
20337;DHT22;10326;53.660;10.200;2024-03-06T13:34:17;11.90;81.70
20337;DHT22;10326;53.660;10.200;2024-03-06T13:36:44;11.90;81.60
20337;DHT22;10326;53.660;10.200;2024-03-06T13:39:12;11.90;81.50
20337;DHT22;10326;53.660;10.200;2024-03-06T13:41:40;11.90;81.30
20337;DHT22;10326;53.660;10.200;2024-03-06T13:44:07;11.90;81.50
20337;DHT22;10326;53.660;10.200;2024-03-06T13:46:34;11.90;81.50
20337;DHT22;10326;53.660;10.200;2024-03-06T13:49:03;11.90;81.50
20337;DHT22;10326;53.660;10.200;2024-03-06T13:51:31;11.90;81.00
20337;DHT22;10326;53.660;10.200;2024-03-06T13:53:58;11.80;81.00
20337;DHT22;10326;53.660;10.200;2024-03-06T13:56:26;11.90;81.10
20337;DHT22;10326;53.660;10.200;2024-03-06T13:58:53;11.80;80.80
20337;DHT22;10326;53.660;10.200;2024-03-06T14:01:20;11.80;80.50
20337;DHT22;10326;53.660;10.200;2024-03-06T14:03:47;11.80;80.50
20337;DHT22;10326;53.660;10.200;2024-03-06T14:06:16;11.80;80.70
20337;DHT22;10326;53.660;10.200;2024-03-06T14:08:43;11.70;80.80
20337;DHT22;10326;53.660;10.200;2024-03-06T14:11:10;11.70;81.20
20337;DHT22;10326;53.660;10.200;2024-03-06T14:13:37;11.70;81.40
20337;DHT22;10326;53.660;10.200;2024-03-06T14:16:04;11.70;82.20
20337;DHT22;10326;53.660;10.200;2024-03-06T14:18:31;11.70;83.20
20337;DHT22;10326;53.660;10.200;2024-03-06T14:20:59;11.80;82.90
20337;DHT22;10326;53.660;10.200;2024-03-06T14:23:28;11.90;82.40
20337;DHT22;10326;53.660;10.200;2024-03-06T14:25:57;12.00;82.20
20337;DHT22;10326;53.660;10.200;2024-03-06T14:28:24;12.10;82.10
20337;DHT22;10326;53.660;10.200;2024-03-06T14:30:51;12.20;81.90
20337;DHT22;10326;53.660;10.200;2024-03-06T14:33:18;12.30;81.70
20337;DHT22;10326;53.660;10.200;2024-03-06T14:35:45;12.30;81.40
20337;DHT22;10326;53.660;10.200;2024-03-06T14:38:15;12.30;81.00
20337;DHT22;10326;53.660;10.200;2024-03-06T14:40:43;12.40;80.90
20337;DHT22;10326;53.660;10.200;2024-03-06T14:43:11;12.40;80.40
20337;DHT22;10326;53.660;10.200;2024-03-06T14:45:38;12.40;80.60
20337;DHT22;10326;53.660;10.200;2024-03-06T14:48:07;12.40;80.30
20337;DHT22;10326;53.660;10.200;2024-03-06T14:50:35;12.40;80.00
20337;DHT22;10326;53.660;10.200;2024-03-06T14:53:02;12.40;79.90
20337;DHT22;10326;53.660;10.200;2024-03-06T14:55:31;12.40;80.10
20337;DHT22;10326;53.660;10.200;2024-03-06T14:57:59;12.50;79.90
20337;DHT22;10326;53.660;10.200;2024-03-06T15:00:26;12.40;79.70
20337;DHT22;10326;53.660;10.200;2024-03-06T15:02:53;12.40;79.70
20337;DHT22;10326;53.660;10.200;2024-03-06T15:05:23;12.40;79.50
20337;DHT22;10326;53.660;10.200;2024-03-06T15:07:50;12.40;79.60
20337;DHT22;10326;53.660;10.200;2024-03-06T15:10:18;12.40;79.50
20337;DHT22;10326;53.660;10.200;2024-03-06T15:12:45;12.40;79.00
20337;DHT22;10326;53.660;10.200;2024-03-06T15:15:13;12.40;78.50
20337;DHT22;10326;53.660;10.200;2024-03-06T15:17:40;12.40;78.40
20337;DHT22;10326;53.660;10.200;2024-03-06T15:20:08;12.30;78.30
20337;DHT22;10326;53.660;10.200;2024-03-06T15:22:36;12.20;78.10
20337;DHT22;10326;53.660;10.200;2024-03-06T15:25:07;12.20;78.20
20337;DHT22;10326;53.660;10.200;2024-03-06T15:27:35;12.10;78.30
20337;DHT22;10326;53.660;10.200;2024-03-06T15:30:02;12.00;78.40